createdAt,value
2018-05-12T00:05:13.397Z,5.90
2018-05-12T00:10:25.738Z,6.87
2018-05-12T00:15:29.925Z,6.60
2018-05-12T00:20:33.206Z,5.97
2018-05-12T00:25:39.086Z,5.83
2018-05-12T00:30:46.691Z,5.97
2018-05-12T00:35:50.944Z,7.20
2018-05-12T00:41:06.126Z,6.70
2018-05-12T00:46:10.130Z,7.77
2018-05-12T00:51:15.157Z,8.17
2018-05-12T00:56:18.335Z,7.47
2018-05-12T01:01:22.557Z,6.63
2018-05-12T01:06:25.911Z,7.17
2018-05-12T01:11:35.428Z,6.33
2018-05-12T01:16:40.503Z,8.60
2018-05-12T01:21:47.148Z,7.90
2018-05-12T01:26:50.502Z,8.33
2018-05-12T01:31:54.574Z,7.00
2018-05-12T01:36:58.600Z,8.20
2018-05-12T01:42:03.508Z,7.80
2018-05-12T01:58:25.434Z,8.60
2018-05-12T02:04:07.905Z,7.17
2018-05-12T02:09:16.147Z,7.93
2018-05-12T02:14:19.328Z,7.87
2018-05-12T02:19:23.386Z,8.20
2018-05-12T02:24:28.058Z,8.07
2018-05-12T02:35:22.383Z,7.90
2018-05-12T02:40:27.200Z,7.87
2018-05-12T02:45:34.222Z,8.00
2018-05-12T02:50:49.178Z,8.33
2018-05-12T02:56:30.779Z,7.47
2018-05-12T03:01:34.473Z,8.67
2018-05-12T03:07:19.233Z,8.43
2018-05-12T03:18:00.753Z,8.70
2018-05-12T03:23:07.284Z,8.30
2018-05-12T03:33:47.711Z,8.82
2018-05-12T03:38:52.396Z,8.07
2018-05-12T03:43:57.231Z,8.47
2018-05-12T03:49:04.795Z,9.57
2018-05-12T03:54:09.443Z,8.77
2018-05-12T03:59:13.714Z,8.70
2018-05-12T04:04:37.249Z,9.20
2018-05-12T04:10:05.473Z,8.37
2018-05-12T04:15:10.739Z,8.40
2018-05-12T04:20:14.308Z,8.47
2018-05-12T04:25:19.140Z,8.90
2018-05-12T04:30:42.261Z,9.63
2018-05-12T04:35:46.672Z,10.47
2018-05-12T04:40:49.871Z,8.60
2018-05-12T04:45:53.909Z,8.30
2018-05-12T04:50:57.226Z,7.97
2018-05-12T04:56:00.790Z,8.20
2018-05-12T05:01:03.899Z,8.73
2018-05-12T05:06:24.060Z,8.97
2018-05-12T05:11:28.430Z,8.57
2018-05-12T05:16:32.265Z,8.30
2018-05-12T05:21:35.358Z,8.43
2018-05-12T05:26:38.869Z,8.60
2018-05-12T05:31:42.358Z,8.53
2018-05-12T05:36:45.469Z,9.43
2018-05-12T05:41:48.554Z,8.57
2018-05-12T05:46:52.976Z,8.13
2018-05-12T05:51:57.404Z,9.30
2018-05-12T05:57:00.890Z,7.80
2018-05-12T06:02:04.678Z,8.07
2018-05-12T06:07:08.152Z,7.90
2018-05-12T06:12:11.217Z,7.43
2018-05-12T06:17:14.706Z,7.27
2018-05-12T06:22:17.781Z,8.93
2018-05-12T06:27:20.883Z,7.87
2018-05-12T06:32:24.362Z,8.38
2018-05-12T06:37:28.230Z,7.10
2018-05-12T06:42:31.318Z,7.47
2018-05-12T06:47:35.173Z,7.57
2018-05-12T06:52:39.822Z,7.47
2018-05-12T06:57:43.632Z,8.75
2018-05-12T07:02:48.080Z,7.70
2018-05-12T07:07:51.581Z,7.00
2018-05-12T07:12:55.435Z,8.50
2018-05-12T07:17:58.956Z,7.60
2018-05-12T07:23:02.041Z,7.03
2018-05-12T07:28:06.504Z,8.43
2018-05-12T07:33:09.610Z,7.37
2018-05-12T07:38:12.681Z,7.57
2018-05-12T07:43:17.121Z,7.70
2018-05-12T07:48:20.602Z,8.97
2018-05-12T07:53:24.549Z,8.50
2018-05-12T07:58:28.996Z,8.30
2018-05-12T08:03:39.036Z,8.10
2018-05-12T08:08:43.552Z,7.47
2018-05-12T08:13:47.670Z,7.57
2018-05-12T08:18:51.527Z,8.20
2018-05-12T08:23:55.971Z,7.97
2018-05-12T08:28:59.081Z,7.10
2018-05-12T08:34:02.203Z,6.57
2018-05-12T08:39:06.801Z,7.40
2018-05-12T08:44:11.582Z,6.63
2018-05-12T08:49:14.665Z,7.27
2018-05-12T08:54:18.141Z,4.60
2018-05-12T08:59:22.634Z,5.33
2018-05-12T09:04:26.158Z,4.87
2018-05-12T09:09:30.641Z,4.97
2018-05-12T09:14:35.231Z,6.73
2018-05-12T09:19:39.106Z,9.00
2018-05-12T09:24:42.948Z,9.07
2018-05-12T09:29:46.026Z,6.23
2018-05-12T09:34:50.473Z,4.67
2018-05-12T09:39:55.071Z,4.57
2018-05-12T09:44:58.549Z,6.33
2018-05-12T09:50:01.654Z,4.43
2018-05-12T09:55:06.090Z,3.83
2018-05-12T10:00:10.522Z,6.23
2018-05-12T10:05:14.009Z,6.50
2018-05-12T10:10:18.444Z,4.63
2018-05-12T10:15:22.883Z,4.57
2018-05-12T10:20:27.357Z,4.30
2018-05-12T10:25:31.781Z,4.33
2018-05-12T10:30:34.865Z,5.70
2018-05-12T10:35:38.718Z,3.93
2018-05-12T10:40:42.561Z,3.77
2018-05-12T10:45:45.645Z,4.30
2018-05-12T10:50:48.729Z,6.53
2018-05-12T10:55:51.829Z,6.03
2018-05-12T11:00:55.683Z,4.93
2018-05-12T11:05:59.175Z,4.00
2018-05-12T11:11:03.616Z,5.30
2018-05-12T11:16:07.243Z,4.63
2018-05-12T11:21:10.181Z,3.97
2018-05-12T11:26:13.273Z,3.60
2018-05-12T11:31:16.372Z,5.30
2018-05-12T11:36:19.458Z,6.37
2018-05-12T11:41:23.303Z,4.30
2018-05-12T11:46:26.382Z,5.22
2018-05-12T11:51:29.918Z,4.83
2018-05-12T11:56:34.106Z,4.30
2018-05-12T12:01:37.953Z,4.43
2018-05-12T12:06:42.394Z,6.60
2018-05-12T12:11:46.614Z,4.47
2018-05-12T12:16:50.834Z,5.23
2018-05-12T12:21:53.907Z,5.60
2018-05-12T12:26:58.129Z,4.90
2018-05-12T12:32:01.218Z,4.33
2018-05-12T12:37:05.429Z,4.50
2018-05-12T12:42:09.653Z,5.20
2018-05-12T12:47:13.517Z,4.47
2018-05-12T12:52:17.962Z,4.60
2018-05-12T12:57:22.554Z,5.37
2018-05-12T13:02:25.649Z,5.30
2018-05-12T13:07:28.733Z,3.77
2018-05-12T13:12:31.819Z,4.73
2018-05-12T13:17:36.869Z,3.27
2018-05-12T13:22:41.626Z,2.97
2018-05-12T13:27:45.215Z,3.43
2018-05-12T13:32:49.568Z,3.13
2018-05-12T13:37:54.017Z,2.73
2018-05-12T13:42:57.115Z,5.03
2018-05-12T13:48:01.346Z,3.87
2018-05-12T13:53:06.220Z,3.80
2018-05-12T13:58:09.705Z,3.13
2018-05-12T14:03:12.790Z,3.10
2018-05-12T14:08:15.883Z,3.30
2018-05-12T14:13:20.316Z,4.30
2018-05-12T14:18:24.165Z,3.93
2018-05-12T14:23:28.596Z,3.90
2018-05-12T14:28:33.016Z,3.60
2018-05-12T14:33:37.461Z,6.90
2018-05-12T14:38:42.054Z,5.60
2018-05-12T14:43:46.519Z,3.93
2018-05-12T14:48:49.998Z,5.70
2018-05-12T14:53:54.263Z,4.07
2018-05-12T14:58:57.367Z,4.80
2018-05-12T15:04:00.458Z,4.23
2018-05-12T15:09:04.697Z,4.60
2018-05-12T15:14:09.613Z,5.00
2018-05-12T15:19:13.841Z,5.63
2018-05-12T15:24:16.942Z,4.27
2018-05-12T15:29:21.182Z,4.67
2018-05-12T15:34:24.269Z,4.17
2018-05-12T15:39:28.713Z,4.70
2018-05-12T15:44:32.557Z,4.47
2018-05-12T15:49:35.641Z,4.70
2018-05-12T15:54:38.730Z,4.70
2018-05-12T15:59:41.827Z,5.17
2018-05-12T16:04:46.389Z,4.37
2018-05-12T16:09:49.864Z,4.10
2018-05-12T16:14:52.978Z,5.17
2018-05-12T16:19:57.198Z,7.90
2018-05-12T16:25:00.676Z,4.93
2018-05-12T16:30:04.531Z,4.20
2018-05-12T16:35:08.426Z,4.77
2018-05-12T16:40:12.869Z,3.97
2018-05-12T16:45:15.969Z,4.30
2018-05-12T16:50:19.858Z,4.50
2018-05-12T16:55:23.327Z,5.60
2018-05-12T17:00:27.389Z,4.40
2018-05-12T17:05:30.897Z,4.10
2018-05-12T17:10:34.363Z,4.60
2018-05-12T17:15:37.666Z,4.30
2018-05-12T17:20:40.747Z,5.73
2018-05-12T17:25:45.959Z,4.73
2018-05-12T17:30:49.437Z,4.50
2018-05-12T17:35:53.295Z,4.07
2018-05-12T17:40:57.706Z,4.57
2018-05-12T17:46:01.567Z,4.57
2018-05-12T17:51:05.788Z,4.23
2018-05-12T17:56:10.227Z,3.93
2018-05-12T18:01:14.525Z,4.17
2018-05-12T18:06:19.125Z,6.47
2018-05-12T18:11:22.225Z,5.03
2018-05-12T18:16:26.083Z,11.20
2018-05-12T18:21:30.543Z,7.13
2018-05-12T18:26:34.988Z,4.80
2018-05-12T18:31:38.465Z,4.50
2018-05-12T18:36:41.553Z,5.80
2018-05-12T18:41:44.634Z,5.03
2018-05-12T18:46:48.869Z,6.47
2018-05-12T18:51:53.261Z,4.80
2018-05-12T18:56:57.686Z,4.07
2018-05-12T19:02:01.924Z,5.17
2018-05-12T19:07:05.408Z,6.43
2018-05-12T19:12:09.861Z,6.60
2018-05-12T19:17:14.858Z,9.47
2018-05-12T19:22:19.182Z,5.07
2018-05-12T19:27:22.616Z,5.13
2018-05-12T19:32:27.194Z,5.53
2018-05-12T19:37:31.841Z,6.77
2018-05-12T19:42:35.695Z,7.10
2018-05-12T19:47:39.027Z,6.10
2018-05-12T19:52:43.307Z,6.10
2018-05-12T19:57:47.858Z,9.02
2018-05-12T20:02:51.369Z,9.27
2018-05-12T20:07:55.168Z,8.57
2018-05-12T20:12:59.685Z,8.97
2018-05-12T20:18:03.291Z,8.70
2018-05-12T20:23:07.713Z,9.13
2018-05-12T20:28:12.041Z,8.80
2018-05-12T20:33:16.494Z,7.13
2018-05-12T20:38:20.386Z,6.97
2018-05-12T20:43:23.877Z,7.87
2018-05-12T20:48:27.352Z,7.77
2018-05-12T20:53:31.258Z,10.83
2018-05-12T20:58:35.125Z,16.27
2018-05-12T21:03:38.646Z,19.87
2018-05-12T21:08:46.238Z,13.13
2018-05-12T21:13:49.363Z,10.93
2018-05-12T21:18:52.476Z,10.87
2018-05-12T21:23:55.667Z,10.23
2018-05-12T21:28:59.894Z,10.17
2018-05-12T21:34:03.078Z,10.10
2018-05-12T21:39:07.786Z,9.57
2018-05-12T21:44:12.394Z,10.77
2018-05-12T21:49:15.478Z,10.00
2018-05-12T21:54:18.574Z,7.57
2018-05-12T21:59:22.458Z,9.02
2018-05-12T22:04:25.577Z,8.10
2018-05-12T22:09:30.798Z,8.27
2018-05-12T22:14:35.221Z,7.00
2018-05-12T22:19:39.878Z,7.23
2018-05-12T22:24:44.076Z,7.00
2018-05-12T22:29:47.221Z,7.57
2018-05-12T22:34:50.318Z,7.13
2018-05-12T22:39:54.215Z,7.30
2018-05-12T22:44:57.684Z,9.70
2018-05-12T22:50:00.847Z,10.85
2018-05-12T22:55:03.991Z,10.13
2018-05-12T23:00:07.921Z,8.93
2018-05-12T23:05:11.035Z,9.13
2018-05-12T23:10:15.392Z,9.53
2018-05-12T23:15:19.712Z,8.80
2018-05-12T23:20:22.943Z,10.67
2018-05-12T23:25:27.704Z,11.13
2018-05-12T23:30:31.958Z,11.93
2018-05-12T23:35:35.280Z,11.43
2018-05-12T23:40:39.132Z,10.97
2018-05-12T23:45:42.655Z,11.23
2018-05-12T23:50:45.743Z,11.57
2018-05-12T23:55:49.591Z,13.35
